createdAt,value
2022-12-08T00:02:44.831Z,99299.20
2022-12-08T00:08:06.847Z,99304.83
2022-12-08T00:13:10.305Z,99305.53
2022-12-08T00:18:13.921Z,99305.98
2022-12-08T00:23:17.430Z,99304.19
2022-12-08T00:28:20.695Z,99307.63
2022-12-08T00:33:24.254Z,99310.59
2022-12-08T00:38:27.426Z,99315.34
2022-12-08T00:43:30.751Z,99329.31
2022-12-08T00:48:34.050Z,99343.23
2022-12-08T00:53:37.256Z,99353.42
2022-12-08T00:58:40.426Z,99358.27
2022-12-08T01:03:44.524Z,99362.76
2022-12-08T01:08:48.426Z,99365.38
2022-12-08T01:13:51.649Z,99359.64
2022-12-08T01:18:55.028Z,99363.46
2022-12-08T01:24:00.834Z,99364.31
2022-12-08T01:29:04.072Z,99372.70
2022-12-08T01:34:08.991Z,99377.20
2022-12-08T01:39:18.217Z,99377.73
2022-12-08T01:44:21.363Z,99384.41
2022-12-08T01:49:35.383Z,99384.15
2022-12-08T01:54:51.226Z,99387.08
2022-12-08T02:00:02.942Z,99392.42
2022-12-08T02:05:07.246Z,99394.52
2022-12-08T02:10:15.114Z,99401.92
2022-12-08T02:15:19.116Z,99397.34
2022-12-08T02:20:56.615Z,99394.60
2022-12-08T02:26:11.566Z,99396.02
2022-12-08T02:31:37.501Z,99398.91
2022-12-08T02:36:43.754Z,99403.49
2022-12-08T02:41:54.305Z,99410.48
2022-12-08T02:47:10.911Z,99418.83
2022-12-08T02:52:14.067Z,99423.29
2022-12-08T02:57:48.665Z,99426.46
2022-12-08T03:03:08.302Z,99436.98
2022-12-08T03:08:33.232Z,99440.59
2022-12-08T03:13:47.463Z,99444.02
2022-12-08T03:19:02.128Z,99446.52
2022-12-08T03:24:07.998Z,99447.34
2022-12-08T03:29:12.806Z,99451.52
2022-12-08T03:34:19.188Z,99452.27
2022-12-08T03:39:22.433Z,99460.44
2022-12-08T03:44:25.703Z,99466.52
2022-12-08T03:49:29.092Z,99472.09
2022-12-08T03:54:32.381Z,99475.53
2022-12-08T03:59:35.608Z,99477.09
2022-12-08T04:04:38.867Z,99484.91
2022-12-08T04:09:42.398Z,99488.29
2022-12-08T04:14:45.603Z,99486.33
2022-12-08T04:19:48.882Z,99491.80
2022-12-08T04:24:52.049Z,99492.63
2022-12-08T04:29:55.413Z,99499.70
2022-12-08T04:34:58.545Z,99505.08
2022-12-08T04:40:02.222Z,99503.70
2022-12-08T04:45:06.557Z,99506.20
2022-12-08T04:50:10.409Z,99510.52
2022-12-08T04:55:13.608Z,99515.92
2022-12-08T05:00:20.944Z,99520.31
2022-12-08T05:05:24.674Z,99521.42
2022-12-08T05:10:27.976Z,99526.39
2022-12-08T05:15:31.144Z,99528.38
2022-12-08T05:20:35.186Z,99529.59
2022-12-08T05:25:38.535Z,99537.98
2022-12-08T05:30:41.930Z,99539.11
2022-12-08T05:35:45.192Z,99540.23
2022-12-08T05:40:54.579Z,99544.79
2022-12-08T05:45:58.341Z,99546.23
2022-12-08T05:51:01.652Z,99548.45
2022-12-08T05:56:05.074Z,99554.59
2022-12-08T06:01:08.848Z,99558.55
2022-12-08T06:06:12.109Z,99564.39
2022-12-08T06:11:27.071Z,99566.77
2022-12-08T06:16:30.831Z,99572.55
2022-12-08T06:21:34.289Z,99574.89
2022-12-08T06:26:37.641Z,99582.17
2022-12-08T06:31:41.086Z,99588.05
2022-12-08T06:36:44.449Z,99591.52
2022-12-08T06:42:06.198Z,99596.70
2022-12-08T06:47:10.196Z,99598.48
2022-12-08T06:52:13.466Z,99604.98
2022-12-08T06:57:18.709Z,99609.91
2022-12-08T07:02:22.451Z,99620.42
2022-12-08T07:07:25.808Z,99629.64
2022-12-08T07:12:30.073Z,99637.10
2022-12-08T07:17:33.467Z,99639.61
2022-12-08T07:22:37.064Z,99645.00
2022-12-08T07:27:40.641Z,99649.35
2022-12-08T07:32:43.928Z,99656.44
2022-12-08T07:37:47.121Z,99664.16
2022-12-08T07:42:50.329Z,99672.39
2022-12-08T07:47:53.552Z,99678.44
2022-12-08T07:52:57.015Z,99684.06
2022-12-08T07:58:00.408Z,99686.64
2022-12-08T08:03:03.923Z,99692.18
2022-12-08T08:08:07.712Z,99693.20
2022-12-08T08:13:11.198Z,99689.42
2022-12-08T08:18:14.689Z,99691.23
2022-12-08T08:23:17.839Z,99697.33
2022-12-08T08:28:22.324Z,99694.24
2022-12-08T08:33:26.433Z,99704.54
2022-12-08T08:38:29.937Z,99710.20
2022-12-08T08:43:38.037Z,99714.02
2022-12-08T08:48:42.715Z,99721.92
2022-12-08T08:53:46.946Z,99729.23
2022-12-08T08:58:52.695Z,99730.73
2022-12-08T09:03:57.376Z,99730.70
2022-12-08T09:09:06.434Z,99732.32
2022-12-08T09:14:14.962Z,99731.76
2022-12-08T09:19:18.209Z,99737.98
2022-12-08T09:24:21.423Z,99739.08
2022-12-08T09:29:26.872Z,99741.17
2022-12-08T09:34:32.434Z,99746.96
2022-12-08T09:39:36.344Z,99748.46
2022-12-08T09:45:03.378Z,99743.19
2022-12-08T09:50:16.425Z,99741.46
2022-12-08T09:55:39.429Z,99741.63
2022-12-08T10:00:46.275Z,99731.45
2022-12-08T10:06:18.143Z,99730.64
2022-12-08T10:11:38.852Z,99728.55
2022-12-08T10:16:48.404Z,99729.61
2022-12-08T10:22:12.751Z,99726.67
2022-12-08T10:27:16.081Z,99722.48
2022-12-08T10:32:23.236Z,99720.73
2022-12-08T10:37:26.557Z,99716.97
2022-12-08T10:42:39.174Z,99712.59
2022-12-08T10:47:45.505Z,99718.44
2022-12-08T10:53:27.131Z,99714.09
2022-12-08T10:58:36.374Z,99716.48
2022-12-08T11:03:48.083Z,99708.52
2022-12-08T11:08:55.374Z,99708.48
2022-12-08T11:13:58.896Z,99702.19
2022-12-08T11:19:07.002Z,99694.48
2022-12-08T11:24:16.221Z,99685.75
2022-12-08T11:29:20.333Z,99677.54
2022-12-08T11:34:37.681Z,99673.27
2022-12-08T11:39:47.513Z,99667.88
2022-12-08T11:45:00.947Z,99666.56
2022-12-08T11:50:32.106Z,99664.71
2022-12-08T11:55:40.677Z,99657.92
2022-12-08T12:00:46.389Z,99654.61
2022-12-08T12:06:54.257Z,99650.56
2022-12-08T12:12:16.568Z,99639.13
2022-12-08T12:17:45.856Z,99631.25
2022-12-08T12:22:57.151Z,99626.94
2022-12-08T12:28:06.193Z,99624.84
2022-12-08T12:33:13.718Z,99618.56
2022-12-08T12:38:49.359Z,99611.17
2022-12-08T12:44:14.842Z,99602.27
2022-12-08T12:49:43.008Z,99594.70
2022-12-08T12:54:51.694Z,99592.17
2022-12-08T12:59:56.016Z,99591.59
2022-12-08T13:05:02.707Z,99584.85
2022-12-08T13:10:24.777Z,99588.90
2022-12-08T13:16:05.511Z,99587.17
2022-12-08T13:21:17.268Z,99585.29
2022-12-08T13:26:24.348Z,99583.21
2022-12-08T13:31:46.655Z,99578.87
2022-12-08T13:37:10.871Z,99576.27
2022-12-08T13:42:32.804Z,99579.20
2022-12-08T13:47:59.575Z,99577.65
2022-12-08T13:59:07.761Z,99571.56
2022-12-08T14:04:47.468Z,99578.64
2022-12-08T14:09:43.667Z,99577.51
2022-12-08T14:15:06.022Z,99580.30
2022-12-08T14:20:12.476Z,99577.13
2022-12-08T14:25:18.411Z,99573.26
2022-12-08T14:30:26.350Z,99567.42
2022-12-08T14:35:38.334Z,99565.56
2022-12-08T14:41:02.932Z,99563.14
2022-12-08T14:46:21.046Z,99561.20
2022-12-08T14:51:29.627Z,99562.02
2022-12-08T14:56:39.359Z,99560.66
2022-12-08T15:01:44.367Z,99560.28
2022-12-08T15:06:47.604Z,99563.98
2022-12-08T15:12:01.989Z,99562.11
2022-12-08T15:17:40.272Z,99560.85
2022-12-08T15:22:43.451Z,99568.37
2022-12-08T15:27:50.492Z,99573.41
2022-12-08T15:32:56.707Z,99572.46
2022-12-08T15:38:00.205Z,99575.94
2022-12-08T15:43:03.814Z,99575.46
2022-12-08T15:48:08.145Z,99571.92
2022-12-08T15:53:11.901Z,99567.14
2022-12-08T16:09:20.168Z,99574.75
2022-12-08T16:15:23.800Z,99576.35
2022-12-08T17:36:15.151Z,99561.16
2022-12-08T17:41:18.976Z,99569.52
2022-12-08T17:46:23.382Z,99571.90
2022-12-08T17:51:26.698Z,99573.29
2022-12-08T17:56:30.008Z,99572.44
2022-12-08T18:01:34.865Z,99561.44
2022-12-08T18:06:39.462Z,99556.83
2022-12-08T18:11:44.013Z,99552.92
2022-12-08T18:16:48.126Z,99547.69
2022-12-08T18:21:51.441Z,99548.02
2022-12-08T18:26:55.767Z,99544.95
2022-12-08T18:31:59.352Z,99536.53
2022-12-08T18:37:02.535Z,99532.69
2022-12-08T18:42:23.138Z,99521.85
2022-12-08T18:47:26.411Z,99513.34
2022-12-08T18:52:32.394Z,99514.73
2022-12-08T18:57:42.622Z,99526.52
2022-12-08T19:02:45.836Z,99527.94
2022-12-08T19:07:49.254Z,99523.30
2022-12-08T19:12:53.690Z,99522.27
2022-12-08T19:17:56.866Z,99517.20
2022-12-08T19:22:59.994Z,99516.80
2022-12-08T19:28:03.317Z,99515.23
2022-12-08T19:33:06.549Z,99518.17
2022-12-08T19:38:09.797Z,99516.52
2022-12-08T19:43:40.815Z,99510.14
2022-12-08T19:48:45.028Z,99509.77
2022-12-08T19:53:48.249Z,99503.33
2022-12-08T19:58:51.464Z,99500.63
2022-12-08T20:03:54.609Z,99507.14
2022-12-08T20:08:59.881Z,99509.20
2022-12-08T20:14:03.205Z,99507.91
2022-12-08T20:19:06.407Z,99507.12
2022-12-08T20:24:09.725Z,99499.69
2022-12-08T20:29:14.975Z,99505.02
2022-12-08T20:34:19.858Z,99510.15
2022-12-08T20:39:26.192Z,99510.88
2022-12-08T20:44:30.404Z,99520.35
2022-12-08T20:49:34.885Z,99526.98
2022-12-08T20:54:39.295Z,99533.05
2022-12-08T20:59:42.699Z,99531.86
2022-12-08T21:04:46.033Z,99531.58
2022-12-08T21:09:49.408Z,99535.75
2022-12-08T21:14:52.879Z,99539.27
2022-12-08T21:19:56.295Z,99546.95
2022-12-08T21:25:00.029Z,99552.65
2022-12-08T21:30:04.433Z,99560.04
2022-12-08T21:35:09.014Z,99564.61
2022-12-08T21:40:13.266Z,99568.72
2022-12-08T21:45:19.437Z,99567.21
2022-12-08T21:50:24.109Z,99570.15
2022-12-08T21:55:27.805Z,99571.35
2022-12-08T22:00:31.329Z,99573.48
2022-12-08T22:05:36.250Z,99574.48
2022-12-08T22:10:39.678Z,99577.64
2022-12-08T22:15:42.978Z,99578.63
2022-12-08T22:20:46.190Z,99583.36
2022-12-08T22:26:00.488Z,99582.02
2022-12-08T22:31:17.467Z,99584.69
2022-12-08T22:36:24.111Z,99586.73
2022-12-08T22:41:27.464Z,99582.72
2022-12-08T22:46:31.815Z,99587.73
2022-12-08T22:51:38.798Z,99591.57
2022-12-08T22:56:42.459Z,99591.26
2022-12-08T23:01:45.627Z,99595.83
2022-12-08T23:06:48.958Z,99599.92
2022-12-08T23:11:53.606Z,99604.34
2022-12-08T23:16:57.031Z,99602.84
2022-12-08T23:22:00.386Z,99602.66
2022-12-08T23:27:03.761Z,99599.69
2022-12-08T23:32:07.327Z,99595.30
2022-12-08T23:37:11.593Z,99603.16
2022-12-08T23:42:14.979Z,99607.30
2022-12-08T23:47:18.578Z,99609.44
2022-12-08T23:52:22.073Z,99613.30
2022-12-08T23:57:25.546Z,99614.83
